Pinecreek, Minnesota
Current Conditions -  °F | °C
As of 5:14 AM on Monday 20 Oct 2014 (Local Time) from KROX Reporting Station
Scattered Clouds Scattered Clouds  
Wind Chill: 36°   Ceiling: Unl
Heat Index: 39°   Visibility: 10mi
Dew Point: 34°   Wind: 5mph
Humidity: 81%   Direction: 300°WNW
Pressure: 29.99"   Gusts: NA
Location:  48.7499°N, 95.6399°W
Report Text: KROX 201014Z AUTO 30004KT 10SM SCT027 04/01 A2999 RMK AO2
Loading
Personal Weather Stations






























Interactive Weather Map
Tropical Storm Tracking
New forecast layout! Learn more

10-Day Weather Forecast

Advertisements
Track Severe Weather on mobile